sensor_id;sensor_type;location;lat;lon;timestamp;P1;durP1;ratioP1;P2;durP2;ratioP2
40691;SDS011;26377;53.344;14.886;2022-10-17T00:01:06;6.45;;;4.30;;
40691;SDS011;26377;53.344;14.886;2022-10-17T00:03:34;6.55;;;4.05;;
40691;SDS011;26377;53.344;14.886;2022-10-17T00:06:08;12.20;;;4.58;;
40691;SDS011;26377;53.344;14.886;2022-10-17T00:08:37;7.83;;;4.45;;
40691;SDS011;26377;53.344;14.886;2022-10-17T00:11:12;7.65;;;4.28;;
40691;SDS011;26377;53.344;14.886;2022-10-17T00:13:48;9.00;;;4.20;;
40691;SDS011;26377;53.344;14.886;2022-10-17T00:16:32;16.12;;;4.95;;
40691;SDS011;26377;53.344;14.886;2022-10-17T00:18:59;8.13;;;4.08;;
40691;SDS011;26377;53.344;14.886;2022-10-17T00:21:27;9.00;;;4.17;;
40691;SDS011;26377;53.344;14.886;2022-10-17T00:23:56;10.13;;;4.25;;
40691;SDS011;26377;53.344;14.886;2022-10-17T00:26:27;9.30;;;4.60;;
40691;SDS011;26377;53.344;14.886;2022-10-17T00:28:55;7.30;;;4.87;;
40691;SDS011;26377;53.344;14.886;2022-10-17T00:31:24;6.75;;;4.60;;
40691;SDS011;26377;53.344;14.886;2022-10-17T00:33:51;8.18;;;4.65;;
40691;SDS011;26377;53.344;14.886;2022-10-17T00:36:20;10.03;;;4.87;;
40691;SDS011;26377;53.344;14.886;2022-10-17T00:38:57;7.62;;;4.83;;
40691;SDS011;26377;53.344;14.886;2022-10-17T00:41:26;8.93;;;4.83;;
40691;SDS011;26377;53.344;14.886;2022-10-17T00:43:59;14.35;;;5.03;;
40691;SDS011;26377;53.344;14.886;2022-10-17T00:46:55;9.90;;;4.72;;
40691;SDS011;26377;53.344;14.886;2022-10-17T00:49:29;12.98;;;5.28;;
40691;SDS011;26377;53.344;14.886;2022-10-17T00:52:00;8.55;;;5.30;;
40691;SDS011;26377;53.344;14.886;2022-10-17T00:54:33;9.90;;;5.03;;
40691;SDS011;26377;53.344;14.886;2022-10-17T00:57:03;8.80;;;5.05;;
40691;SDS011;26377;53.344;14.886;2022-10-17T00:59:31;15.38;;;4.83;;
40691;SDS011;26377;53.344;14.886;2022-10-17T01:04:36;8.40;;;4.75;;
40691;SDS011;26377;53.344;14.886;2022-10-17T01:07:05;17.77;;;4.95;;
40691;SDS011;26377;53.344;14.886;2022-10-17T01:09:33;12.45;;;5.28;;
40691;SDS011;26377;53.344;14.886;2022-10-17T01:32:36;8.75;;;4.65;;
40691;SDS011;26377;53.344;14.886;2022-10-17T01:38:20;12.43;;;4.92;;
40691;SDS011;26377;53.344;14.886;2022-10-17T01:44:12;8.00;;;5.07;;
40691;SDS011;26377;53.344;14.886;2022-10-17T01:46:49;8.93;;;5.12;;
40691;SDS011;26377;53.344;14.886;2022-10-17T01:49:22;9.45;;;4.92;;
40691;SDS011;26377;53.344;14.886;2022-10-17T01:51:54;7.78;;;4.60;;
40691;SDS011;26377;53.344;14.886;2022-10-17T01:54:37;11.28;;;4.20;;
40691;SDS011;26377;53.344;14.886;2022-10-17T01:57:16;8.25;;;4.28;;
40691;SDS011;26377;53.344;14.886;2022-10-17T02:00:10;10.08;;;4.90;;
40691;SDS011;26377;53.344;14.886;2022-10-17T02:02:43;8.40;;;5.33;;
40691;SDS011;26377;53.344;14.886;2022-10-17T02:05:17;12.85;;;5.83;;
40691;SDS011;26377;53.344;14.886;2022-10-17T02:07:47;10.08;;;6.17;;
40691;SDS011;26377;53.344;14.886;2022-10-17T02:10:17;13.55;;;6.15;;
40691;SDS011;26377;53.344;14.886;2022-10-17T02:18:50;10.80;;;5.15;;
40691;SDS011;26377;53.344;14.886;2022-10-17T02:24:15;11.55;;;5.25;;
40691;SDS011;26377;53.344;14.886;2022-10-17T02:27:09;11.55;;;4.87;;
40691;SDS011;26377;53.344;14.886;2022-10-17T02:29:56;7.50;;;5.70;;
40691;SDS011;26377;53.344;14.886;2022-10-17T02:32:50;8.18;;;5.62;;
40691;SDS011;26377;53.344;14.886;2022-10-17T02:35:12;13.22;;;5.97;;
40691;SDS011;26377;53.344;14.886;2022-10-17T02:37:41;11.57;;;5.53;;
40691;SDS011;26377;53.344;14.886;2022-10-17T02:40:12;11.08;;;5.47;;
40691;SDS011;26377;53.344;14.886;2022-10-17T02:42:46;11.68;;;6.92;;
40691;SDS011;26377;53.344;14.886;2022-10-17T02:45:19;10.50;;;6.28;;
40691;SDS011;26377;53.344;14.886;2022-10-17T02:47:58;9.05;;;5.62;;
40691;SDS011;26377;53.344;14.886;2022-10-17T02:50:36;9.35;;;6.25;;
40691;SDS011;26377;53.344;14.886;2022-10-17T02:53:19;9.00;;;5.35;;
40691;SDS011;26377;53.344;14.886;2022-10-17T02:55:53;8.73;;;5.12;;
40691;SDS011;26377;53.344;14.886;2022-10-17T02:58:30;10.60;;;5.72;;
40691;SDS011;26377;53.344;14.886;2022-10-17T03:00:59;12.95;;;5.70;;
40691;SDS011;26377;53.344;14.886;2022-10-17T03:03:29;13.62;;;5.60;;
40691;SDS011;26377;53.344;14.886;2022-10-17T03:06:02;8.95;;;5.45;;
40691;SDS011;26377;53.344;14.886;2022-10-17T03:08:29;11.45;;;5.85;;
40691;SDS011;26377;53.344;14.886;2022-10-17T03:10:59;8.87;;;6.03;;
40691;SDS011;26377;53.344;14.886;2022-10-17T03:13:27;11.03;;;6.70;;
40691;SDS011;26377;53.344;14.886;2022-10-17T03:15:56;14.23;;;6.60;;
40691;SDS011;26377;53.344;14.886;2022-10-17T03:18:24;9.83;;;5.65;;
40691;SDS011;26377;53.344;14.886;2022-10-17T03:20:53;15.00;;;6.50;;
40691;SDS011;26377;53.344;14.886;2022-10-17T03:23:23;14.35;;;6.03;;
40691;SDS011;26377;53.344;14.886;2022-10-17T03:25:51;13.65;;;6.87;;
40691;SDS011;26377;53.344;14.886;2022-10-17T03:28:19;11.50;;;5.47;;
40691;SDS011;26377;53.344;14.886;2022-10-17T03:30:48;9.73;;;5.35;;
40691;SDS011;26377;53.344;14.886;2022-10-17T03:33:20;8.35;;;5.55;;
40691;SDS011;26377;53.344;14.886;2022-10-17T03:35:44;11.40;;;6.00;;
40691;SDS011;26377;53.344;14.886;2022-10-17T03:38:14;12.68;;;5.97;;
40691;SDS011;26377;53.344;14.886;2022-10-17T03:40:41;11.63;;;5.90;;
40691;SDS011;26377;53.344;14.886;2022-10-17T03:43:10;24.10;;;7.85;;
40691;SDS011;26377;53.344;14.886;2022-10-17T03:45:38;14.58;;;7.33;;
40691;SDS011;26377;53.344;14.886;2022-10-17T03:48:07;19.32;;;8.30;;
40691;SDS011;26377;53.344;14.886;2022-10-17T03:50:36;17.32;;;7.15;;
40691;SDS011;26377;53.344;14.886;2022-10-17T03:53:06;14.28;;;7.85;;
40691;SDS011;26377;53.344;14.886;2022-10-17T03:55:33;12.35;;;7.12;;
40691;SDS011;26377;53.344;14.886;2022-10-17T03:58:01;14.25;;;6.62;;
40691;SDS011;26377;53.344;14.886;2022-10-17T04:00:28;17.05;;;6.70;;
40691;SDS011;26377;53.344;14.886;2022-10-17T04:02:56;16.27;;;7.58;;
40691;SDS011;26377;53.344;14.886;2022-10-17T04:05:25;13.40;;;6.47;;
40691;SDS011;26377;53.344;14.886;2022-10-17T04:07:55;15.98;;;6.15;;
40691;SDS011;26377;53.344;14.886;2022-10-17T04:10:24;12.60;;;5.90;;
40691;SDS011;26377;53.344;14.886;2022-10-17T04:12:51;10.10;;;5.95;;
40691;SDS011;26377;53.344;14.886;2022-10-17T04:15:21;14.83;;;6.00;;
40691;SDS011;26377;53.344;14.886;2022-10-17T04:17:50;12.28;;;6.55;;
40691;SDS011;26377;53.344;14.886;2022-10-17T04:20:19;14.68;;;5.55;;
40691;SDS011;26377;53.344;14.886;2022-10-17T04:22:46;17.60;;;6.83;;
40691;SDS011;26377;53.344;14.886;2022-10-17T04:25:15;13.90;;;6.58;;
40691;SDS011;26377;53.344;14.886;2022-10-17T04:27:44;10.88;;;6.20;;
40691;SDS011;26377;53.344;14.886;2022-10-17T04:30:13;11.18;;;5.78;;
40691;SDS011;26377;53.344;14.886;2022-10-17T04:32:41;16.97;;;6.17;;
40691;SDS011;26377;53.344;14.886;2022-10-17T04:35:22;13.62;;;7.35;;
40691;SDS011;26377;53.344;14.886;2022-10-17T04:37:52;11.63;;;6.67;;
40691;SDS011;26377;53.344;14.886;2022-10-17T04:40:19;11.48;;;6.50;;
40691;SDS011;26377;53.344;14.886;2022-10-17T04:42:49;11.63;;;6.20;;
40691;SDS011;26377;53.344;14.886;2022-10-17T04:45:19;15.50;;;7.17;;
40691;SDS011;26377;53.344;14.886;2022-10-17T04:47:49;14.00;;;6.92;;
40691;SDS011;26377;53.344;14.886;2022-10-17T04:50:16;12.35;;;6.83;;
40691;SDS011;26377;53.344;14.886;2022-10-17T04:52:45;12.47;;;7.17;;
40691;SDS011;26377;53.344;14.886;2022-10-17T04:55:15;21.07;;;7.35;;
40691;SDS011;26377;53.344;14.886;2022-10-17T04:57:44;14.25;;;7.33;;
40691;SDS011;26377;53.344;14.886;2022-10-17T05:00:15;10.15;;;6.45;;
40691;SDS011;26377;53.344;14.886;2022-10-17T05:02:50;13.70;;;7.45;;
40691;SDS011;26377;53.344;14.886;2022-10-17T05:05:20;15.50;;;6.70;;
40691;SDS011;26377;53.344;14.886;2022-10-17T05:07:51;13.10;;;7.50;;
40691;SDS011;26377;53.344;14.886;2022-10-17T05:10:21;13.68;;;7.67;;
40691;SDS011;26377;53.344;14.886;2022-10-17T05:12:48;14.65;;;8.88;;
40691;SDS011;26377;53.344;14.886;2022-10-17T05:15:22;13.10;;;8.23;;
40691;SDS011;26377;53.344;14.886;2022-10-17T05:17:53;14.87;;;8.20;;
40691;SDS011;26377;53.344;14.886;2022-10-17T05:20:23;12.65;;;8.13;;
40691;SDS011;26377;53.344;14.886;2022-10-17T05:22:53;15.63;;;7.87;;
40691;SDS011;26377;53.344;14.886;2022-10-17T05:25:20;17.35;;;8.93;;
40691;SDS011;26377;53.344;14.886;2022-10-17T05:27:49;14.15;;;9.03;;
40691;SDS011;26377;53.344;14.886;2022-10-17T05:30:17;16.67;;;9.93;;
40691;SDS011;26377;53.344;14.886;2022-10-17T05:32:46;17.12;;;9.08;;
40691;SDS011;26377;53.344;14.886;2022-10-17T05:35:16;14.13;;;8.73;;
40691;SDS011;26377;53.344;14.886;2022-10-17T05:37:43;17.15;;;8.60;;
40691;SDS011;26377;53.344;14.886;2022-10-17T05:40:11;12.95;;;9.30;;
40691;SDS011;26377;53.344;14.886;2022-10-17T05:42:39;15.43;;;9.75;;
40691;SDS011;26377;53.344;14.886;2022-10-17T05:45:14;16.85;;;10.23;;
40691;SDS011;26377;53.344;14.886;2022-10-17T05:47:42;19.35;;;11.63;;
40691;SDS011;26377;53.344;14.886;2022-10-17T05:50:13;17.62;;;12.88;;
40691;SDS011;26377;53.344;14.886;2022-10-17T05:52:41;27.25;;;13.45;;
40691;SDS011;26377;53.344;14.886;2022-10-17T05:55:10;19.73;;;12.70;;
40691;SDS011;26377;53.344;14.886;2022-10-17T05:57:38;22.67;;;11.78;;
40691;SDS011;26377;53.344;14.886;2022-10-17T06:00:08;16.87;;;11.85;;
40691;SDS011;26377;53.344;14.886;2022-10-17T06:02:41;19.23;;;12.63;;
40691;SDS011;26377;53.344;14.886;2022-10-17T06:05:14;16.80;;;12.10;;
40691;SDS011;26377;53.344;14.886;2022-10-17T06:07:41;14.75;;;11.78;;
40691;SDS011;26377;53.344;14.886;2022-10-17T06:10:14;22.05;;;13.18;;
40691;SDS011;26377;53.344;14.886;2022-10-17T06:12:43;22.02;;;13.72;;
40691;SDS011;26377;53.344;14.886;2022-10-17T06:15:16;21.00;;;15.32;;
40691;SDS011;26377;53.344;14.886;2022-10-17T06:17:46;17.63;;;14.47;;
40691;SDS011;26377;53.344;14.886;2022-10-17T06:20:14;22.95;;;14.70;;
40691;SDS011;26377;53.344;14.886;2022-10-17T06:22:43;18.27;;;14.03;;
40691;SDS011;26377;53.344;14.886;2022-10-17T06:25:12;20.88;;;14.68;;
40691;SDS011;26377;53.344;14.886;2022-10-17T06:27:41;21.35;;;14.95;;
40691;SDS011;26377;53.344;14.886;2022-10-17T06:30:11;24.60;;;15.78;;
40691;SDS011;26377;53.344;14.886;2022-10-17T06:32:39;17.82;;;14.43;;
40691;SDS011;26377;53.344;14.886;2022-10-17T06:35:07;18.85;;;14.23;;
40691;SDS011;26377;53.344;14.886;2022-10-17T06:37:36;16.70;;;13.38;;
40691;SDS011;26377;53.344;14.886;2022-10-17T06:40:08;19.32;;;12.60;;
40691;SDS011;26377;53.344;14.886;2022-10-17T06:42:41;16.55;;;11.50;;
40691;SDS011;26377;53.344;14.886;2022-10-17T06:45:29;17.45;;;11.03;;
40691;SDS011;26377;53.344;14.886;2022-10-17T06:48:15;12.18;;;9.63;;
40691;SDS011;26377;53.344;14.886;2022-10-17T06:50:44;13.98;;;9.65;;
40691;SDS011;26377;53.344;14.886;2022-10-17T06:53:15;16.10;;;9.53;;
40691;SDS011;26377;53.344;14.886;2022-10-17T06:55:45;15.58;;;9.25;;
40691;SDS011;26377;53.344;14.886;2022-10-17T06:58:38;10.65;;;7.97;;
40691;SDS011;26377;53.344;14.886;2022-10-17T07:01:08;12.98;;;8.73;;
40691;SDS011;26377;53.344;14.886;2022-10-17T07:03:39;16.12;;;8.83;;
40691;SDS011;26377;53.344;14.886;2022-10-17T07:06:07;12.95;;;8.53;;
40691;SDS011;26377;53.344;14.886;2022-10-17T07:08:43;10.95;;;8.58;;
40691;SDS011;26377;53.344;14.886;2022-10-17T07:11:14;10.35;;;7.83;;
40691;SDS011;26377;53.344;14.886;2022-10-17T07:13:47;12.68;;;7.30;;
40691;SDS011;26377;53.344;14.886;2022-10-17T07:16:15;11.18;;;8.18;;
40691;SDS011;26377;53.344;14.886;2022-10-17T07:18:47;12.25;;;7.08;;
40691;SDS011;26377;53.344;14.886;2022-10-17T07:21:17;10.80;;;6.97;;
40691;SDS011;26377;53.344;14.886;2022-10-17T07:23:46;13.35;;;8.95;;
40691;SDS011;26377;53.344;14.886;2022-10-17T07:26:14;11.53;;;8.00;;
40691;SDS011;26377;53.344;14.886;2022-10-17T07:28:46;8.73;;;6.28;;
40691;SDS011;26377;53.344;14.886;2022-10-17T07:31:38;8.98;;;6.00;;
40691;SDS011;26377;53.344;14.886;2022-10-17T07:34:06;9.73;;;6.62;;
40691;SDS011;26377;53.344;14.886;2022-10-17T07:36:34;13.48;;;6.10;;
40691;SDS011;26377;53.344;14.886;2022-10-17T07:39:03;9.33;;;5.25;;
40691;SDS011;26377;53.344;14.886;2022-10-17T07:41:31;7.70;;;5.50;;
40691;SDS011;26377;53.344;14.886;2022-10-17T07:43:59;6.53;;;5.03;;
40691;SDS011;26377;53.344;14.886;2022-10-17T07:46:28;8.85;;;4.33;;
40691;SDS011;26377;53.344;14.886;2022-10-17T07:48:57;6.50;;;5.08;;
40691;SDS011;26377;53.344;14.886;2022-10-17T07:51:26;8.95;;;5.45;;
40691;SDS011;26377;53.344;14.886;2022-10-17T07:53:53;7.58;;;5.25;;
40691;SDS011;26377;53.344;14.886;2022-10-17T07:56:22;7.22;;;4.87;;
40691;SDS011;26377;53.344;14.886;2022-10-17T07:58:50;5.80;;;4.53;;
40691;SDS011;26377;53.344;14.886;2022-10-17T08:01:21;5.97;;;5.37;;
40691;SDS011;26377;53.344;14.886;2022-10-17T08:03:50;6.20;;;5.12;;
40691;SDS011;26377;53.344;14.886;2022-10-17T08:06:21;7.50;;;5.47;;
40691;SDS011;26377;53.344;14.886;2022-10-17T08:08:48;9.68;;;5.40;;
40691;SDS011;26377;53.344;14.886;2022-10-17T08:11:16;7.12;;;5.37;;
40691;SDS011;26377;53.344;14.886;2022-10-17T08:13:44;12.00;;;6.83;;
40691;SDS011;26377;53.344;14.886;2022-10-17T08:16:11;9.73;;;6.12;;
40691;SDS011;26377;53.344;14.886;2022-10-17T08:18:41;8.73;;;6.03;;
40691;SDS011;26377;53.344;14.886;2022-10-17T08:21:11;8.00;;;6.15;;
40691;SDS011;26377;53.344;14.886;2022-10-17T08:23:40;10.13;;;5.53;;
40691;SDS011;26377;53.344;14.886;2022-10-17T08:26:08;10.55;;;6.40;;
40691;SDS011;26377;53.344;14.886;2022-10-17T08:28:38;7.87;;;5.97;;
40691;SDS011;26377;53.344;14.886;2022-10-17T08:31:09;8.70;;;6.17;;
40691;SDS011;26377;53.344;14.886;2022-10-17T08:33:40;9.63;;;6.35;;
40691;SDS011;26377;53.344;14.886;2022-10-17T08:36:08;9.98;;;6.60;;
40691;SDS011;26377;53.344;14.886;2022-10-17T08:38:36;8.45;;;6.17;;
40691;SDS011;26377;53.344;14.886;2022-10-17T08:41:09;11.63;;;6.55;;
40691;SDS011;26377;53.344;14.886;2022-10-17T08:44:01;9.75;;;6.80;;
40691;SDS011;26377;53.344;14.886;2022-10-17T08:46:52;11.73;;;8.00;;
40691;SDS011;26377;53.344;14.886;2022-10-17T08:49:47;19.15;;;7.55;;
40691;SDS011;26377;53.344;14.886;2022-10-17T08:55:08;10.50;;;7.58;;
40691;SDS011;26377;53.344;14.886;2022-10-17T08:57:43;13.03;;;7.08;;
40691;SDS011;26377;53.344;14.886;2022-10-17T09:00:20;11.65;;;8.10;;
40691;SDS011;26377;53.344;14.886;2022-10-17T09:05:32;8.98;;;8.08;;
40691;SDS011;26377;53.344;14.886;2022-10-17T09:14:11;10.90;;;7.97;;
40691;SDS011;26377;53.344;14.886;2022-10-17T09:17:07;9.25;;;7.58;;
40691;SDS011;26377;53.344;14.886;2022-10-17T09:19:45;11.05;;;9.05;;
40691;SDS011;26377;53.344;14.886;2022-10-17T09:22:40;10.48;;;8.53;;
40691;SDS011;26377;53.344;14.886;2022-10-17T09:25:11;14.53;;;8.40;;
40691;SDS011;26377;53.344;14.886;2022-10-17T09:27:45;11.35;;;8.75;;
40691;SDS011;26377;53.344;14.886;2022-10-17T09:33:28;12.53;;;8.63;;
40691;SDS011;26377;53.344;14.886;2022-10-17T09:36:15;11.93;;;9.48;;
40691;SDS011;26377;53.344;14.886;2022-10-17T09:38:52;13.30;;;9.25;;
40691;SDS011;26377;53.344;14.886;2022-10-17T09:41:25;15.20;;;9.48;;
40691;SDS011;26377;53.344;14.886;2022-10-17T09:44:11;12.60;;;9.10;;
40691;SDS011;26377;53.344;14.886;2022-10-17T09:49:59;11.57;;;9.18;;
40691;SDS011;26377;53.344;14.886;2022-10-17T09:55:04;11.68;;;8.68;;
40691;SDS011;26377;53.344;14.886;2022-10-17T09:57:50;15.70;;;8.88;;
40691;SDS011;26377;53.344;14.886;2022-10-17T10:00:34;12.40;;;8.58;;
40691;SDS011;26377;53.344;14.886;2022-10-17T10:03:20;13.30;;;8.75;;
40691;SDS011;26377;53.344;14.886;2022-10-17T10:08:36;12.25;;;9.55;;
40691;SDS011;26377;53.344;14.886;2022-10-17T10:11:21;14.47;;;9.38;;
40691;SDS011;26377;53.344;14.886;2022-10-17T10:13:50;11.73;;;8.35;;
40691;SDS011;26377;53.344;14.886;2022-10-17T10:16:31;10.65;;;8.35;;
40691;SDS011;26377;53.344;14.886;2022-10-17T10:19:00;12.40;;;8.68;;
40691;SDS011;26377;53.344;14.886;2022-10-17T10:21:27;13.40;;;9.28;;
40691;SDS011;26377;53.344;14.886;2022-10-17T10:26:34;10.48;;;8.53;;
40691;SDS011;26377;53.344;14.886;2022-10-17T10:31:52;14.10;;;8.73;;
40691;SDS011;26377;53.344;14.886;2022-10-17T10:34:26;10.45;;;8.35;;
40691;SDS011;26377;53.344;14.886;2022-10-17T10:42:17;11.90;;;8.00;;
40691;SDS011;26377;53.344;14.886;2022-10-17T10:44:47;10.58;;;7.87;;
40691;SDS011;26377;53.344;14.886;2022-10-17T10:47:21;11.05;;;7.87;;
40691;SDS011;26377;53.344;14.886;2022-10-17T10:49:52;10.70;;;8.38;;
40691;SDS011;26377;53.344;14.886;2022-10-17T11:01:56;11.88;;;8.55;;
40691;SDS011;26377;53.344;14.886;2022-10-17T11:04:47;9.93;;;7.85;;
40691;SDS011;26377;53.344;14.886;2022-10-17T11:07:37;10.43;;;8.43;;
40691;SDS011;26377;53.344;14.886;2022-10-17T11:13:57;11.38;;;7.28;;
40691;SDS011;26377;53.344;14.886;2022-10-17T11:16:22;11.40;;;8.00;;
40691;SDS011;26377;53.344;14.886;2022-10-17T11:19:23;8.38;;;7.33;;
40691;SDS011;26377;53.344;14.886;2022-10-17T11:27:28;12.20;;;7.58;;
40691;SDS011;26377;53.344;14.886;2022-10-17T11:29:57;9.85;;;7.90;;
40691;SDS011;26377;53.344;14.886;2022-10-17T11:32:44;9.55;;;7.12;;
40691;SDS011;26377;53.344;14.886;2022-10-17T11:35:18;8.18;;;6.42;;
40691;SDS011;26377;53.344;14.886;2022-10-17T11:40:59;10.32;;;6.50;;
40691;SDS011;26377;53.344;14.886;2022-10-17T11:46:04;11.93;;;7.20;;
40691;SDS011;26377;53.344;14.886;2022-10-17T11:48:54;9.73;;;6.60;;
40691;SDS011;26377;53.344;14.886;2022-10-17T11:51:22;12.47;;;7.45;;
40691;SDS011;26377;53.344;14.886;2022-10-17T11:54:01;13.62;;;7.37;;
40691;SDS011;26377;53.344;14.886;2022-10-17T12:02:49;12.28;;;7.70;;
40691;SDS011;26377;53.344;14.886;2022-10-17T12:08:06;9.73;;;6.60;;
40691;SDS011;26377;53.344;14.886;2022-10-17T12:38:49;10.88;;;7.30;;
40691;SDS011;26377;53.344;14.886;2022-10-17T12:58:02;10.03;;;7.42;;
40691;SDS011;26377;53.344;14.886;2022-10-17T13:00:36;7.90;;;5.83;;
40691;SDS011;26377;53.344;14.886;2022-10-17T13:03:23;10.35;;;6.42;;
40691;SDS011;26377;53.344;14.886;2022-10-17T13:06:01;8.90;;;6.45;;
40691;SDS011;26377;53.344;14.886;2022-10-17T13:08:33;10.70;;;6.80;;
40691;SDS011;26377;53.344;14.886;2022-10-17T13:11:04;8.70;;;6.20;;
40691;SDS011;26377;53.344;14.886;2022-10-17T13:13:45;12.35;;;6.22;;
40691;SDS011;26377;53.344;14.886;2022-10-17T13:16:30;10.68;;;6.20;;
40691;SDS011;26377;53.344;14.886;2022-10-17T13:19:01;8.00;;;5.62;;
40691;SDS011;26377;53.344;14.886;2022-10-17T13:21:48;7.17;;;5.67;;
40691;SDS011;26377;53.344;14.886;2022-10-17T13:27:03;6.95;;;5.90;;
40691;SDS011;26377;53.344;14.886;2022-10-17T13:29:34;10.70;;;6.40;;
40691;SDS011;26377;53.344;14.886;2022-10-17T13:32:09;7.00;;;6.10;;
40691;SDS011;26377;53.344;14.886;2022-10-17T13:34:38;9.88;;;6.47;;
40691;SDS011;26377;53.344;14.886;2022-10-17T13:37:06;11.48;;;6.65;;
40691;SDS011;26377;53.344;14.886;2022-10-17T13:39:37;6.67;;;5.97;;
40691;SDS011;26377;53.344;14.886;2022-10-17T13:42:23;12.28;;;6.05;;
40691;SDS011;26377;53.344;14.886;2022-10-17T13:45:00;10.00;;;6.20;;
40691;SDS011;26377;53.344;14.886;2022-10-17T13:47:34;9.05;;;5.70;;
40691;SDS011;26377;53.344;14.886;2022-10-17T13:50:02;7.08;;;5.67;;
40691;SDS011;26377;53.344;14.886;2022-10-17T13:52:31;7.35;;;5.80;;
40691;SDS011;26377;53.344;14.886;2022-10-17T13:55:07;9.43;;;6.20;;
40691;SDS011;26377;53.344;14.886;2022-10-17T13:57:49;7.83;;;6.35;;
40691;SDS011;26377;53.344;14.886;2022-10-17T14:00:18;6.17;;;5.58;;
40691;SDS011;26377;53.344;14.886;2022-10-17T14:02:51;8.30;;;5.80;;
40691;SDS011;26377;53.344;14.886;2022-10-17T14:05:19;8.78;;;6.20;;
40691;SDS011;26377;53.344;14.886;2022-10-17T14:10:26;9.63;;;6.67;;
40691;SDS011;26377;53.344;14.886;2022-10-17T14:13:00;11.75;;;6.30;;
40691;SDS011;26377;53.344;14.886;2022-10-17T14:15:32;10.65;;;6.08;;
40691;SDS011;26377;53.344;14.886;2022-10-17T14:18:07;9.30;;;6.50;;
40691;SDS011;26377;53.344;14.886;2022-10-17T14:20:38;9.65;;;7.00;;
40691;SDS011;26377;53.344;14.886;2022-10-17T14:23:03;11.83;;;7.00;;
40691;SDS011;26377;53.344;14.886;2022-10-17T14:25:35;8.85;;;6.70;;
40691;SDS011;26377;53.344;14.886;2022-10-17T14:28:12;8.48;;;6.33;;
40691;SDS011;26377;53.344;14.886;2022-10-17T14:30:41;9.38;;;6.28;;
40691;SDS011;26377;53.344;14.886;2022-10-17T14:33:23;10.78;;;6.22;;
40691;SDS011;26377;53.344;14.886;2022-10-17T14:35:54;8.28;;;5.47;;
40691;SDS011;26377;53.344;14.886;2022-10-17T14:38:25;10.72;;;6.70;;
40691;SDS011;26377;53.344;14.886;2022-10-17T14:41:18;12.33;;;5.85;;
40691;SDS011;26377;53.344;14.886;2022-10-17T14:43:55;9.50;;;6.20;;
40691;SDS011;26377;53.344;14.886;2022-10-17T14:46:28;9.80;;;5.55;;
40691;SDS011;26377;53.344;14.886;2022-10-17T14:49:00;10.58;;;6.50;;
40691;SDS011;26377;53.344;14.886;2022-10-17T14:51:31;9.88;;;6.85;;
40691;SDS011;26377;53.344;14.886;2022-10-17T14:54:21;14.28;;;7.00;;
40691;SDS011;26377;53.344;14.886;2022-10-17T14:56:50;13.08;;;5.95;;
40691;SDS011;26377;53.344;14.886;2022-10-17T14:59:21;10.05;;;6.55;;
40691;SDS011;26377;53.344;14.886;2022-10-17T15:01:51;11.20;;;6.42;;
40691;SDS011;26377;53.344;14.886;2022-10-17T15:04:18;10.20;;;7.15;;
40691;SDS011;26377;53.344;14.886;2022-10-17T15:06:45;10.38;;;6.58;;
40691;SDS011;26377;53.344;14.886;2022-10-17T15:09:19;12.13;;;6.37;;
40691;SDS011;26377;53.344;14.886;2022-10-17T15:11:49;8.78;;;6.75;;
40691;SDS011;26377;53.344;14.886;2022-10-17T15:14:16;8.13;;;6.05;;
40691;SDS011;26377;53.344;14.886;2022-10-17T15:16:43;9.28;;;6.62;;
40691;SDS011;26377;53.344;14.886;2022-10-17T15:19:12;9.10;;;7.15;;
40691;SDS011;26377;53.344;14.886;2022-10-17T15:21:39;7.95;;;6.65;;
40691;SDS011;26377;53.344;14.886;2022-10-17T15:24:08;8.30;;;6.40;;
40691;SDS011;26377;53.344;14.886;2022-10-17T15:26:36;10.05;;;6.37;;
40691;SDS011;26377;53.344;14.886;2022-10-17T15:29:03;8.50;;;6.85;;
40691;SDS011;26377;53.344;14.886;2022-10-17T15:31:30;13.32;;;6.85;;
40691;SDS011;26377;53.344;14.886;2022-10-17T15:34:00;9.30;;;6.97;;
40691;SDS011;26377;53.344;14.886;2022-10-17T15:36:38;12.47;;;6.33;;
40691;SDS011;26377;53.344;14.886;2022-10-17T15:39:08;9.87;;;6.57;;
40691;SDS011;26377;53.344;14.886;2022-10-17T15:41:35;9.33;;;7.08;;
40691;SDS011;26377;53.344;14.886;2022-10-17T15:44:05;10.40;;;6.97;;
40691;SDS011;26377;53.344;14.886;2022-10-17T15:46:33;11.20;;;6.85;;
40691;SDS011;26377;53.344;14.886;2022-10-17T15:49:04;11.73;;;7.67;;
40691;SDS011;26377;53.344;14.886;2022-10-17T15:51:34;10.18;;;6.90;;
40691;SDS011;26377;53.344;14.886;2022-10-17T15:54:03;11.40;;;7.22;;
40691;SDS011;26377;53.344;14.886;2022-10-17T15:56:32;12.23;;;7.55;;
40691;SDS011;26377;53.344;14.886;2022-10-17T16:01:44;10.53;;;7.65;;
40691;SDS011;26377;53.344;14.886;2022-10-17T16:04:13;11.10;;;8.03;;
40691;SDS011;26377;53.344;14.886;2022-10-17T16:07:58;9.78;;;7.58;;
40691;SDS011;26377;53.344;14.886;2022-10-17T16:13:18;11.55;;;7.78;;
40691;SDS011;26377;53.344;14.886;2022-10-17T16:15:50;10.70;;;7.80;;
40691;SDS011;26377;53.344;14.886;2022-10-17T16:18:18;14.03;;;7.33;;
40691;SDS011;26377;53.344;14.886;2022-10-17T16:20:46;16.25;;;8.30;;
40691;SDS011;26377;53.344;14.886;2022-10-17T16:23:15;14.03;;;8.68;;
40691;SDS011;26377;53.344;14.886;2022-10-17T16:25:46;9.40;;;7.55;;
40691;SDS011;26377;53.344;14.886;2022-10-17T16:28:14;11.40;;;7.55;;
40691;SDS011;26377;53.344;14.886;2022-10-17T16:30:43;14.10;;;8.00;;
40691;SDS011;26377;53.344;14.886;2022-10-17T16:33:13;13.80;;;8.30;;
40691;SDS011;26377;53.344;14.886;2022-10-17T16:35:40;13.32;;;8.55;;
40691;SDS011;26377;53.344;14.886;2022-10-17T16:38:08;10.72;;;8.23;;
40691;SDS011;26377;53.344;14.886;2022-10-17T16:44:00;13.20;;;8.18;;
40691;SDS011;26377;53.344;14.886;2022-10-17T16:47:25;10.30;;;8.05;;
40691;SDS011;26377;53.344;14.886;2022-10-17T16:49:53;18.25;;;9.35;;
40691;SDS011;26377;53.344;14.886;2022-10-17T16:52:23;11.45;;;7.90;;
40691;SDS011;26377;53.344;14.886;2022-10-17T16:54:51;12.88;;;8.55;;
40691;SDS011;26377;53.344;14.886;2022-10-17T16:57:18;12.88;;;7.67;;
40691;SDS011;26377;53.344;14.886;2022-10-17T16:59:45;8.63;;;6.85;;
40691;SDS011;26377;53.344;14.886;2022-10-17T17:02:14;10.80;;;8.03;;
40691;SDS011;26377;53.344;14.886;2022-10-17T17:04:45;9.85;;;6.90;;
40691;SDS011;26377;53.344;14.886;2022-10-17T17:07:12;13.88;;;8.45;;
40691;SDS011;26377;53.344;14.886;2022-10-17T17:09:39;13.80;;;7.85;;
40691;SDS011;26377;53.344;14.886;2022-10-17T17:12:06;12.23;;;7.45;;
40691;SDS011;26377;53.344;14.886;2022-10-17T17:14:35;12.85;;;7.78;;
40691;SDS011;26377;53.344;14.886;2022-10-17T17:17:04;15.25;;;7.87;;
40691;SDS011;26377;53.344;14.886;2022-10-17T17:19:31;11.18;;;7.72;;
40691;SDS011;26377;53.344;14.886;2022-10-17T17:22:01;9.58;;;7.47;;
40691;SDS011;26377;53.344;14.886;2022-10-17T17:24:28;14.43;;;7.25;;
40691;SDS011;26377;53.344;14.886;2022-10-17T17:26:56;12.58;;;7.65;;
40691;SDS011;26377;53.344;14.886;2022-10-17T17:29:23;9.70;;;7.20;;
40691;SDS011;26377;53.344;14.886;2022-10-17T17:31:53;11.10;;;7.15;;
40691;SDS011;26377;53.344;14.886;2022-10-17T17:34:25;11.45;;;8.00;;
40691;SDS011;26377;53.344;14.886;2022-10-17T17:36:55;12.53;;;8.25;;
40691;SDS011;26377;53.344;14.886;2022-10-17T17:39:23;9.65;;;7.03;;
40691;SDS011;26377;53.344;14.886;2022-10-17T17:41:57;13.35;;;7.20;;